<?xml version="1.0" encoding="UTF-8" standalone="no" ?>
<gpx xmlns="http://www.topografix.com/GPX/1/1" xmlns:xsi="http://www.w3.org/2001/XMLSchema-instance" xsi:schemaLocation="http://www.topografix.com/GPX/1/1 http://www.topografix.com/GPX/1/1/gpx.xsd" version="1.1" creator="VisuGPX - https://www.visugpx.com">
  <metadata>
    <name>Moirax N2 18km</name>
    <desc><![CDATA[Boucle Moirax - Aubiac par le Mangueil ]]></desc>
  </metadata>
  <trk>
    <name><![CDATA[13741005-Moirax N2]]></name>
    <extensions>
      <line xmlns="http://www.topografix.com/GPX/gpx_style/0/2">
        <color>0000FF</color>
        <width>4</width>
      </line>
    </extensions>
    <trkseg>
      <trkpt lat="44.13745" lon="0.60863">
        <ele>147</ele>
        <time>2021-11-21T17:53:02Z</time>
      </trkpt>
      <trkpt lat="44.13604" lon="0.60924">
        <ele>145</ele>
        <time>2021-11-21T17:56:19Z</time>
      </trkpt>
      <trkpt lat="44.13575" lon="0.60962">
        <ele>145</ele>
        <time>2021-11-21T17:57:12Z</time>
      </trkpt>
      <trkpt lat="44.1357" lon="0.61017">
        <ele>142</ele>
        <time>2021-11-21T17:58:05Z</time>
      </trkpt>
      <trkpt lat="44.13628" lon="0.61145">
        <ele>132</ele>
        <time>2021-11-21T18:00:30Z</time>
      </trkpt>
      <trkpt lat="44.1364" lon="0.61201">
        <ele>129</ele>
        <time>2021-11-21T18:01:26Z</time>
      </trkpt>
      <trkpt lat="44.13677" lon="0.61396">
        <ele>123</ele>
        <time>2021-11-21T18:04:39Z</time>
      </trkpt>
      <trkpt lat="44.13561" lon="0.615">
        <ele>109</ele>
        <time>2021-11-21T18:07:43Z</time>
      </trkpt>
      <trkpt lat="44.13559" lon="0.61556">
        <ele>106</ele>
        <time>2021-11-21T18:08:37Z</time>
      </trkpt>
      <trkpt lat="44.13513" lon="0.61607">
        <ele>94</ele>
        <time>2021-11-21T18:09:56Z</time>
      </trkpt>
      <trkpt lat="44.13341" lon="0.6164">
        <ele>77</ele>
        <time>2021-11-21T18:13:47Z</time>
      </trkpt>
      <trkpt lat="44.13311" lon="0.61604">
        <ele>79</ele>
        <time>2021-11-21T18:14:40Z</time>
      </trkpt>
      <trkpt lat="44.132" lon="0.61474">
        <ele>87</ele>
        <time>2021-11-21T18:17:54Z</time>
      </trkpt>
      <trkpt lat="44.1313" lon="0.61541">
        <ele>104</ele>
        <time>2021-11-21T18:19:47Z</time>
      </trkpt>
      <trkpt lat="44.13002" lon="0.61578">
        <ele>114</ele>
        <time>2021-11-21T18:22:41Z</time>
      </trkpt>
      <trkpt lat="44.12923" lon="0.61564">
        <ele>121</ele>
        <time>2021-11-21T18:24:28Z</time>
      </trkpt>
      <trkpt lat="44.12848" lon="0.61593">
        <ele>130</ele>
        <time>2021-11-21T18:26:12Z</time>
      </trkpt>
      <trkpt lat="44.12843" lon="0.61306">
        <ele>139</ele>
        <time>2021-11-21T18:30:47Z</time>
      </trkpt>
      <trkpt lat="44.1283" lon="0.612">
        <ele>138</ele>
        <time>2021-11-21T18:32:30Z</time>
      </trkpt>
      <trkpt lat="44.12823" lon="0.61179">
        <ele>138</ele>
        <time>2021-11-21T18:32:52Z</time>
      </trkpt>
      <trkpt lat="44.12726" lon="0.60991">
        <ele>124</ele>
        <time>2021-11-21T18:36:33Z</time>
      </trkpt>
      <trkpt lat="44.1263" lon="0.60918">
        <ele>124</ele>
        <time>2021-11-21T18:38:59Z</time>
      </trkpt>
      <trkpt lat="44.12659" lon="0.60734">
        <ele>112</ele>
        <time>2021-11-21T18:42:00Z</time>
      </trkpt>
      <trkpt lat="44.12479" lon="0.60573">
        <ele>107</ele>
        <time>2021-11-21T18:46:45Z</time>
      </trkpt>
      <trkpt lat="44.12495" lon="0.60549">
        <ele>103</ele>
        <time>2021-11-21T18:47:17Z</time>
      </trkpt>
      <trkpt lat="44.12472" lon="0.60508">
        <ele>97</ele>
        <time>2021-11-21T18:48:07Z</time>
      </trkpt>
      <trkpt lat="44.12339" lon="0.60519">
        <ele>105</ele>
        <time>2021-11-21T18:51:04Z</time>
      </trkpt>
      <trkpt lat="44.12327" lon="0.60461">
        <ele>106</ele>
        <time>2021-11-21T18:52:02Z</time>
      </trkpt>
      <trkpt lat="44.12416" lon="0.60195">
        <ele>123</ele>
        <time>2021-11-21T18:56:43Z</time>
      </trkpt>
      <trkpt lat="44.12362" lon="0.59931">
        <ele>142</ele>
        <time>2021-11-21T19:01:06Z</time>
      </trkpt>
      <trkpt lat="44.12211" lon="0.60204">
        <ele>115</ele>
        <time>2021-11-21T19:06:36Z</time>
      </trkpt>
      <trkpt lat="44.12129" lon="0.60201">
        <ele>113</ele>
        <time>2021-11-21T19:08:26Z</time>
      </trkpt>
      <trkpt lat="44.11995" lon="0.60261">
        <ele>107</ele>
        <time>2021-11-21T19:11:34Z</time>
      </trkpt>
      <trkpt lat="44.11855" lon="0.60231">
        <ele>106</ele>
        <time>2021-11-21T19:14:43Z</time>
      </trkpt>
      <trkpt lat="44.11843" lon="0.60182">
        <ele>110</ele>
        <time>2021-11-21T19:15:32Z</time>
      </trkpt>
      <trkpt lat="44.11871" lon="0.59994">
        <ele>125</ele>
        <time>2021-11-21T19:18:36Z</time>
      </trkpt>
      <trkpt lat="44.11874" lon="0.59984">
        <ele>126</ele>
        <time>2021-11-21T19:18:47Z</time>
      </trkpt>
      <trkpt lat="44.11863" lon="0.6">
        <ele>125</ele>
        <time>2021-11-21T19:19:08Z</time>
      </trkpt>
      <trkpt lat="44.11894" lon="0.5989">
        <ele>134</ele>
        <time>2021-11-21T19:21:01Z</time>
      </trkpt>
      <trkpt lat="44.11907" lon="0.59811">
        <ele>141</ele>
        <time>2021-11-21T19:22:19Z</time>
      </trkpt>
      <trkpt lat="44.11924" lon="0.59767">
        <ele>145</ele>
        <time>2021-11-21T19:23:07Z</time>
      </trkpt>
      <trkpt lat="44.1193" lon="0.59739">
        <ele>148</ele>
        <time>2021-11-21T19:23:35Z</time>
      </trkpt>
      <trkpt lat="44.11922" lon="0.59635">
        <ele>161</ele>
        <time>2021-11-21T19:25:15Z</time>
      </trkpt>
      <trkpt lat="44.11926" lon="0.59617">
        <ele>162</ele>
        <time>2021-11-21T19:25:33Z</time>
      </trkpt>
      <trkpt lat="44.11987" lon="0.59614">
        <ele>164</ele>
        <time>2021-11-21T19:26:54Z</time>
      </trkpt>
      <trkpt lat="44.12071" lon="0.59592">
        <ele>167</ele>
        <time>2021-11-21T19:28:48Z</time>
      </trkpt>
      <trkpt lat="44.1211" lon="0.59444">
        <ele>170</ele>
        <time>2021-11-21T19:31:19Z</time>
      </trkpt>
      <trkpt lat="44.12043" lon="0.5932">
        <ele>167</ele>
        <time>2021-11-21T19:33:48Z</time>
      </trkpt>
      <trkpt lat="44.12033" lon="0.59296">
        <ele>168</ele>
        <time>2021-11-21T19:34:15Z</time>
      </trkpt>
      <trkpt lat="44.12019" lon="0.59109">
        <ele>171</ele>
        <time>2021-11-21T19:37:15Z</time>
      </trkpt>
      <trkpt lat="44.12007" lon="0.58928">
        <ele>170</ele>
        <time>2021-11-21T19:40:09Z</time>
      </trkpt>
      <trkpt lat="44.12144" lon="0.58765">
        <ele>162</ele>
        <time>2021-11-21T19:44:09Z</time>
      </trkpt>
      <trkpt lat="44.12328" lon="0.58431">
        <ele>117</ele>
        <time>2021-11-21T19:50:53Z</time>
      </trkpt>
      <trkpt lat="44.12387" lon="0.5823">
        <ele>103</ele>
        <time>2021-11-21T19:54:21Z</time>
      </trkpt>
      <trkpt lat="44.12405" lon="0.58217">
        <ele>104</ele>
        <time>2021-11-21T19:54:48Z</time>
      </trkpt>
      <trkpt lat="44.12573" lon="0.58324">
        <ele>105</ele>
        <time>2021-11-21T19:58:54Z</time>
      </trkpt>
      <trkpt lat="44.12641" lon="0.58172">
        <ele>117</ele>
        <time>2021-11-21T20:01:46Z</time>
      </trkpt>
      <trkpt lat="44.12711" lon="0.5807">
        <ele>124</ele>
        <time>2021-11-21T20:04:01Z</time>
      </trkpt>
      <trkpt lat="44.12771" lon="0.58024">
        <ele>127</ele>
        <time>2021-11-21T20:05:32Z</time>
      </trkpt>
      <trkpt lat="44.1285" lon="0.57772">
        <ele>138</ele>
        <time>2021-11-21T20:09:56Z</time>
      </trkpt>
      <trkpt lat="44.12924" lon="0.57792">
        <ele>143</ele>
        <time>2021-11-21T20:11:36Z</time>
      </trkpt>
      <trkpt lat="44.13018" lon="0.57873">
        <ele>143</ele>
        <time>2021-11-21T20:14:04Z</time>
      </trkpt>
      <trkpt lat="44.13065" lon="0.57743">
        <ele>152</ele>
        <time>2021-11-21T20:16:23Z</time>
      </trkpt>
      <trkpt lat="44.13129" lon="0.57642">
        <ele>165</ele>
        <time>2021-11-21T20:18:32Z</time>
      </trkpt>
      <trkpt lat="44.13193" lon="0.5759">
        <ele>171</ele>
        <time>2021-11-21T20:20:11Z</time>
      </trkpt>
      <trkpt lat="44.13202" lon="0.57586">
        <ele>171</ele>
        <time>2021-11-21T20:20:24Z</time>
      </trkpt>
      <trkpt lat="44.13259" lon="0.57552">
        <ele>173</ele>
        <time>2021-11-21T20:21:47Z</time>
      </trkpt>
      <trkpt lat="44.13282" lon="0.57553">
        <ele>173</ele>
        <time>2021-11-21T20:22:17Z</time>
      </trkpt>
      <trkpt lat="44.13352" lon="0.57535">
        <ele>172</ele>
        <time>2021-11-21T20:23:52Z</time>
      </trkpt>
      <trkpt lat="44.13422" lon="0.5759">
        <ele>171</ele>
        <time>2021-11-21T20:25:39Z</time>
      </trkpt>
      <trkpt lat="44.13508" lon="0.57602">
        <ele>169</ele>
        <time>2021-11-21T20:27:35Z</time>
      </trkpt>
      <trkpt lat="44.13672" lon="0.57469">
        <ele>169</ele>
        <time>2021-11-21T20:31:48Z</time>
      </trkpt>
      <trkpt lat="44.13817" lon="0.57377">
        <ele>171</ele>
        <time>2021-11-21T20:35:21Z</time>
      </trkpt>
      <trkpt lat="44.13903" lon="0.57337">
        <ele>170</ele>
        <time>2021-11-21T20:37:22Z</time>
      </trkpt>
      <trkpt lat="44.14144" lon="0.57107">
        <ele>159</ele>
        <time>2021-11-21T20:43:51Z</time>
      </trkpt>
      <trkpt lat="44.14143" lon="0.57097">
        <ele>159</ele>
        <time>2021-11-21T20:44:01Z</time>
      </trkpt>
      <trkpt lat="44.14117" lon="0.56955">
        <ele>141</ele>
        <time>2021-11-21T20:46:21Z</time>
      </trkpt>
      <trkpt lat="44.1403" lon="0.56635">
        <ele>109</ele>
        <time>2021-11-21T20:51:49Z</time>
      </trkpt>
      <trkpt lat="44.14075" lon="0.56567">
        <ele>106</ele>
        <time>2021-11-21T20:53:18Z</time>
      </trkpt>
      <trkpt lat="44.14068" lon="0.56507">
        <ele>110</ele>
        <time>2021-11-21T20:54:16Z</time>
      </trkpt>
      <trkpt lat="44.14174" lon="0.56364">
        <ele>103</ele>
        <time>2021-11-21T20:57:33Z</time>
      </trkpt>
      <trkpt lat="44.14153" lon="0.5633">
        <ele>105</ele>
        <time>2021-11-21T20:58:16Z</time>
      </trkpt>
      <trkpt lat="44.14134" lon="0.56243">
        <ele>112</ele>
        <time>2021-11-21T20:59:43Z</time>
      </trkpt>
      <trkpt lat="44.14148" lon="0.56177">
        <ele>111</ele>
        <time>2021-11-21T21:00:49Z</time>
      </trkpt>
      <trkpt lat="44.14111" lon="0.56119">
        <ele>111</ele>
        <time>2021-11-21T21:02:03Z</time>
      </trkpt>
      <trkpt lat="44.14097" lon="0.55954">
        <ele>99</ele>
        <time>2021-11-21T21:04:42Z</time>
      </trkpt>
      <trkpt lat="44.14062" lon="0.55961">
        <ele>100</ele>
        <time>2021-11-21T21:05:29Z</time>
      </trkpt>
      <trkpt lat="44.14017" lon="0.55828">
        <ele>90</ele>
        <time>2021-11-21T21:07:50Z</time>
      </trkpt>
      <trkpt lat="44.13995" lon="0.55732">
        <ele>90</ele>
        <time>2021-11-21T21:09:27Z</time>
      </trkpt>
      <trkpt lat="44.13996" lon="0.55733">
        <ele>90</ele>
        <time>2021-11-21T21:09:28Z</time>
      </trkpt>
      <trkpt lat="44.13936" lon="0.55706">
        <ele>94</ele>
        <time>2021-11-21T21:10:52Z</time>
      </trkpt>
      <trkpt lat="44.13932" lon="0.55616">
        <ele>98</ele>
        <time>2021-11-21T21:12:19Z</time>
      </trkpt>
      <trkpt lat="44.13914" lon="0.55435">
        <ele>103</ele>
        <time>2021-11-21T21:15:14Z</time>
      </trkpt>
      <trkpt lat="44.13892" lon="0.55333">
        <ele>102</ele>
        <time>2021-11-21T21:16:56Z</time>
      </trkpt>
      <trkpt lat="44.13766" lon="0.54921">
        <ele>106</ele>
        <time>2021-11-21T21:24:05Z</time>
      </trkpt>
      <trkpt lat="44.13733" lon="0.54814">
        <ele>106</ele>
        <time>2021-11-21T21:25:56Z</time>
      </trkpt>
      <trkpt lat="44.13803" lon="0.54778">
        <ele>100</ele>
        <time>2021-11-21T21:27:36Z</time>
      </trkpt>
      <trkpt lat="44.13717" lon="0.54548">
        <ele>107</ele>
        <time>2021-11-21T21:31:44Z</time>
      </trkpt>
      <trkpt lat="44.13804" lon="0.54775">
        <ele>100</ele>
        <time>2021-11-21T21:35:51Z</time>
      </trkpt>
      <trkpt lat="44.13739" lon="0.54809">
        <ele>105</ele>
        <time>2021-11-21T21:37:23Z</time>
      </trkpt>
      <trkpt lat="44.13882" lon="0.55314">
        <ele>102</ele>
        <time>2021-11-21T21:46:03Z</time>
      </trkpt>
      <trkpt lat="44.13926" lon="0.55497">
        <ele>100</ele>
        <time>2021-11-21T21:49:08Z</time>
      </trkpt>
      <trkpt lat="44.13945" lon="0.55709">
        <ele>94</ele>
        <time>2021-11-21T21:52:33Z</time>
      </trkpt>
      <trkpt lat="44.14" lon="0.5576">
        <ele>89</ele>
        <time>2021-11-21T21:54:01Z</time>
      </trkpt>
      <trkpt lat="44.14026" lon="0.55869">
        <ele>93</ele>
        <time>2021-11-21T21:55:51Z</time>
      </trkpt>
      <trkpt lat="44.14062" lon="0.55967">
        <ele>101</ele>
        <time>2021-11-21T21:57:36Z</time>
      </trkpt>
      <trkpt lat="44.14109" lon="0.55975">
        <ele>101</ele>
        <time>2021-11-21T21:58:39Z</time>
      </trkpt>
      <trkpt lat="44.14116" lon="0.56153">
        <ele>112</ele>
        <time>2021-11-21T22:01:30Z</time>
      </trkpt>
      <trkpt lat="44.14148" lon="0.56189">
        <ele>111</ele>
        <time>2021-11-21T22:02:25Z</time>
      </trkpt>
      <trkpt lat="44.14143" lon="0.5628">
        <ele>110</ele>
        <time>2021-11-21T22:03:52Z</time>
      </trkpt>
      <trkpt lat="44.14149" lon="0.56389">
        <ele>106</ele>
        <time>2021-11-21T22:05:37Z</time>
      </trkpt>
      <trkpt lat="44.14267" lon="0.56451">
        <ele>107</ele>
        <time>2021-11-21T22:08:25Z</time>
      </trkpt>
      <trkpt lat="44.14283" lon="0.56451">
        <ele>109</ele>
        <time>2021-11-21T22:08:47Z</time>
      </trkpt>
      <trkpt lat="44.14451" lon="0.56869">
        <ele>168</ele>
        <time>2021-11-21T22:16:26Z</time>
      </trkpt>
      <trkpt lat="44.14476" lon="0.56913">
        <ele>171</ele>
        <time>2021-11-21T22:17:19Z</time>
      </trkpt>
      <trkpt lat="44.14651" lon="0.56948">
        <ele>162</ele>
        <time>2021-11-21T22:21:15Z</time>
      </trkpt>
      <trkpt lat="44.14753" lon="0.56987">
        <ele>150</ele>
        <time>2021-11-21T22:23:36Z</time>
      </trkpt>
      <trkpt lat="44.14931" lon="0.5728">
        <ele>137</ele>
        <time>2021-11-21T22:29:44Z</time>
      </trkpt>
      <trkpt lat="44.14842" lon="0.57361">
        <ele>139</ele>
        <time>2021-11-21T22:32:06Z</time>
      </trkpt>
      <trkpt lat="44.14791" lon="0.574">
        <ele>132</ele>
        <time>2021-11-21T22:33:23Z</time>
      </trkpt>
      <trkpt lat="44.14763" lon="0.57501">
        <ele>124</ele>
        <time>2021-11-21T22:35:07Z</time>
      </trkpt>
      <trkpt lat="44.14915" lon="0.57568">
        <ele>125</ele>
        <time>2021-11-21T22:38:40Z</time>
      </trkpt>
      <trkpt lat="44.14965" lon="0.57616">
        <ele>125</ele>
        <time>2021-11-21T22:40:01Z</time>
      </trkpt>
      <trkpt lat="44.14965" lon="0.57624">
        <ele>125</ele>
        <time>2021-11-21T22:40:09Z</time>
      </trkpt>
      <trkpt lat="44.14982" lon="0.57701">
        <ele>121</ele>
        <time>2021-11-21T22:41:26Z</time>
      </trkpt>
      <trkpt lat="44.15028" lon="0.57867">
        <ele>111</ele>
        <time>2021-11-21T22:44:16Z</time>
      </trkpt>
      <trkpt lat="44.15109" lon="0.57914">
        <ele>109</ele>
        <time>2021-11-21T22:46:13Z</time>
      </trkpt>
      <trkpt lat="44.15218" lon="0.57945">
        <ele>104</ele>
        <time>2021-11-21T22:48:42Z</time>
      </trkpt>
      <trkpt lat="44.15226" lon="0.58019">
        <ele>103</ele>
        <time>2021-11-21T22:49:53Z</time>
      </trkpt>
      <trkpt lat="44.15288" lon="0.58077">
        <ele>108</ele>
        <time>2021-11-21T22:51:33Z</time>
      </trkpt>
      <trkpt lat="44.15376" lon="0.58107">
        <ele>119</ele>
        <time>2021-11-21T22:53:34Z</time>
      </trkpt>
      <trkpt lat="44.15457" lon="0.58172">
        <ele>130</ele>
        <time>2021-11-21T22:55:39Z</time>
      </trkpt>
      <trkpt lat="44.15358" lon="0.583">
        <ele>136</ele>
        <time>2021-11-21T22:58:39Z</time>
      </trkpt>
      <trkpt lat="44.15249" lon="0.58491">
        <ele>139</ele>
        <time>2021-11-21T23:02:32Z</time>
      </trkpt>
      <trkpt lat="44.15143" lon="0.58578">
        <ele>142</ele>
        <time>2021-11-21T23:05:17Z</time>
      </trkpt>
      <trkpt lat="44.15134" lon="0.58585">
        <ele>143</ele>
        <time>2021-11-21T23:05:30Z</time>
      </trkpt>
      <trkpt lat="44.15095" lon="0.58878">
        <ele>134</ele>
        <time>2021-11-21T23:10:16Z</time>
      </trkpt>
      <trkpt lat="44.15007" lon="0.59107">
        <ele>135</ele>
        <time>2021-11-21T23:14:24Z</time>
      </trkpt>
      <trkpt lat="44.14935" lon="0.59238">
        <ele>142</ele>
        <time>2021-11-21T23:17:02Z</time>
      </trkpt>
      <trkpt lat="44.14902" lon="0.5927">
        <ele>143</ele>
        <time>2021-11-21T23:17:56Z</time>
      </trkpt>
      <trkpt lat="44.1486" lon="0.59401">
        <ele>141</ele>
        <time>2021-11-21T23:20:13Z</time>
      </trkpt>
      <trkpt lat="44.14842" lon="0.59462">
        <ele>137</ele>
        <time>2021-11-21T23:21:17Z</time>
      </trkpt>
      <trkpt lat="44.14848" lon="0.59527">
        <ele>134</ele>
        <time>2021-11-21T23:22:19Z</time>
      </trkpt>
      <trkpt lat="44.14784" lon="0.59648">
        <ele>121</ele>
        <time>2021-11-21T23:24:43Z</time>
      </trkpt>
      <trkpt lat="44.14762" lon="0.59814">
        <ele>107</ele>
        <time>2021-11-21T23:27:25Z</time>
      </trkpt>
      <trkpt lat="44.14724" lon="0.59956">
        <ele>98</ele>
        <time>2021-11-21T23:29:50Z</time>
      </trkpt>
      <trkpt lat="44.14639" lon="0.6013">
        <ele>83</ele>
        <time>2021-11-21T23:33:12Z</time>
      </trkpt>
      <trkpt lat="44.14492" lon="0.60357">
        <ele>76</ele>
        <time>2021-11-21T23:38:04Z</time>
      </trkpt>
      <trkpt lat="44.14374" lon="0.60518">
        <ele>102</ele>
        <time>2021-11-21T23:41:45Z</time>
      </trkpt>
      <trkpt lat="44.1431" lon="0.60799">
        <ele>129</ele>
        <time>2021-11-21T23:46:27Z</time>
      </trkpt>
      <trkpt lat="44.14335" lon="0.60939">
        <ele>140</ele>
        <time>2021-11-21T23:48:45Z</time>
      </trkpt>
      <trkpt lat="44.14116" lon="0.60902">
        <ele>158</ele>
        <time>2021-11-21T23:53:40Z</time>
      </trkpt>
      <trkpt lat="44.13858" lon="0.60804">
        <ele>155</ele>
        <time>2021-11-21T23:59:37Z</time>
      </trkpt>
      <trkpt lat="44.13772" lon="0.60862">
        <ele>149</ele>
        <time>2021-11-22T00:01:44Z</time>
      </trkpt>
    </trkseg>
  </trk>
</gpx>